Abingdon, VA

7:25 PM EDT on March 26, 2015 (GMT -0400)
Tri-Cities Regional Tennessee / Virginia | | Change Station
CLOSE
Current Station
Airport
Location: Tri-Cities,
Elevation: 1519 ft
Nearby Weather Stations
Active Advisory: Freeze Watch

Elev 1519 ft 36.48 °N, 82.40 °W | Updated 32 minutes ago

Overcast
Overcast
66 °F
Feels Like 66 °F
N
16
Wind Variable Wind from NW
Gusts 31 mph

Today
High -- | Low -- °F
--% Chance of Precip.
Yesterday
High -- | Low -- °F
Precip. -- in
7:22 AM 7:44 PM
Waxing Crescent, 46% visible
Pressure 29.65 in
Visibility 10.0 miles
Clouds Mostly Cloudy 6500 ft
Mostly Cloudy 9500 ft
Overcast 25000 ft
Dew Point 53 °F
Humidity 63%
Rainfall 0.00 in
Snow Depth Not available.
UV 0 out of 12
Pollen 10.10 out of 12
Air Quality Not available.
Flu Activity Not available.
METAR KTRI 262253Z 31014G27KT 10SM BKN065 BKN095 OVC250 19/12 A2971 RMK AO2 PK WND 30027/2248 SLP040 T01890117

More Conditions Fewer Conditions

Pressure 29.65 in
Visibility 10.0 miles
Clouds Mostly Cloudy 6500 ft
Mostly Cloudy 9500 ft
Overcast 25000 ft
Dew Point 53 °F
Humidity 63%
Rainfall 0.00 in
Snow Depth Not available.
UV 0 out of 12
Pollen 10.10 out of 12
Air Quality Not available.
Flu Activity Not available.
METAR KTRI 262253Z 31014G27KT 10SM BKN065 BKN095 OVC250 19/12 A2971 RMK AO2 PK WND 30027/2248 SLP040 T01890117

More Conditions Fewer Conditions

10-Day Weather Forecast

Almanac

Astronomy

Mar. 26, 2015 Rise Set
Actual Time
Civil Twilight
Nautical Twilight
Astronomical Twilight
Moon
Length of Visible Light
Length of Day
Tomorrow will be .
, % of the Moon is Illuminated

Today's Extremes

State Highs State Lows

Community

WunderPhotos

Upload Photos

1,808,635 photos uploaded!

WunderBlogs® & News

Nearby

Air Quality

  Air Quality AQ Index Pollutant
Not available.

Snow Depth

Station Depth Elevation

Earthquake Activity

City Distance Mag. Time & Date
Minimum magnitude displayed is 2.5.

Coastal Water Temperatures

Place Temperature

Stations

Nearby Weather Stations

Station Location Temp. Windchill Dew Point Humidity Wind Precip. Elev Updated Type
                   
Freeze Watch
Statement as of 3:47 PM EDT on March 26, 2015

... Freeze watch remains in effect from late Friday night through
Saturday morning...

* event... a hard freeze expected with lows in the 20s.

* Timing... temperatures falling below 32 degrees after midnight
and not warming above freezing until mid morning Saturday.

* Impacts... the prolonged period of freezing temperatures could
kill Strawberry plants... and also damage the blooms of any
fruit trees in the watch area.

Precautionary/preparedness actions...

A freeze watch means sub-freezing temperatures are possible.
These conditions could kill crops and other sensitive vegetation
that are left unprotected.